Time;durP1;ratioP1;P1;durP2;ratioP2;P2;SDS_P1;SDS_P2;PMS_P1;PMS_P2;Temp;Humidity;BMP_temperature;BMP_pressure;BME280_temperature;BME280_humidity;BME280_pressure;Samples;Min_cycle;Max_cycle;Signal;HPM_P1;HPM_P2
2021/01/21 00:00:16;;;;;;;;;;;;;;;-1.64;93.26;91716.87;1058300;56;20198;-86
2021/01/21 00:01:18;;;;;;;;;;;;;;;-1.57;92.56;91715.00;1058572;56;20159;-85
2021/01/21 00:02:18;;;;;;;;;;;;;;;-1.52;92.58;91719.12;1060694;56;20655;-85
2021/01/21 00:03:19;;;;;;;;;;;;;;;-1.52;92.50;91721.75;1064691;56;20173;-84
2021/01/21 00:04:19;;;;;;;;;;;;;;;-1.52;92.69;91719.12;1065033;56;20162;-85
2021/01/21 00:05:20;;;;;;;;;;;;;;;-1.44;92.79;91730.38;1060675;56;20170;-85
2021/01/21 00:06:20;;;;;;;;;;;;;;;-1.43;92.40;91711.62;1060691;56;20230;-84
2021/01/21 00:07:21;;;;;;;;;;;;;;;-1.39;92.10;91711.66;1062575;56;20151;-86
2021/01/21 00:08:21;;;;;;;;;;;;;;;-1.46;92.49;91712.38;1062862;56;20185;-84
2021/01/21 00:09:21;;;;;;;;;;;;;;;-1.43;92.98;91700.41;1060708;56;21111;-85
2021/01/21 00:10:22;;;;;;;;;;;;;;;-1.42;93.30;91696.66;1058333;56;20155;-85
2021/01/21 00:11:22;;;;;;;;;;;;;;;-1.40;93.33;91697.06;1062753;56;20177;-85
2021/01/21 00:12:23;;;;;;;;;;;;;;;-1.45;93.12;91697.41;1060564;56;20155;-84
2021/01/21 00:13:23;;;;;;;;;;;;;;;-1.46;93.47;91696.66;1060350;56;20611;-86
2021/01/21 00:14:24;;;;;;;;;;;;;;;-1.47;93.41;91705.66;1062926;56;20158;-87
2021/01/21 00:15:24;;;;;;;;;;;;;;;-1.46;93.21;91701.16;1062676;56;20185;-86
2021/01/21 00:16:25;;;;;;;;;;;;;;;-1.45;93.42;91695.53;1064807;56;20188;-87
2021/01/21 00:17:25;;;;;;;;;;;;;;;-1.43;92.40;91703.03;1060606;56;20219;-84
2021/01/21 00:18:27;;;;;;;;;;;;;;;-1.48;92.73;91706.78;1062686;56;20259;-85
2021/01/21 00:19:30;;;;;;;;;;;;;;;-1.41;92.80;91709.37;1062591;56;20260;-85
2021/01/21 00:20:31;;;;;;;;;;;;;;;-1.47;92.75;91699.66;1062692;55;20177;-85
2021/01/21 00:21:31;;;;;;;;;;;;;;;-1.42;92.48;91700.03;1064908;56;20154;-85
2021/01/21 00:22:32;;;;;;;;;;;;;;;-1.40;92.25;91712.78;1061884;56;20159;-84
2021/01/21 00:23:32;;;;;;;;;;;;;;;-1.47;92.26;91715.37;1065068;56;20158;-86
2021/01/21 00:24:33;;;;;;;;;;;;;;;-1.45;93.07;91703.38;1062674;56;20154;-86
2021/01/21 00:25:34;;;;;;;;;;;;;;;-1.41;91.97;91714.63;1065174;56;20158;-85
2021/01/21 00:26:34;;;;;;;;;;;;;;;-1.42;92.89;91712.38;1064949;56;20231;-85
2021/01/21 00:27:36;;;;;;;;;;;;;;;-1.47;93.45;91726.59;1062707;56;20769;-85
2021/01/21 00:28:36;;;;;;;;;;;;;;;-1.45;93.26;91713.12;1065049;55;20194;-86
2021/01/21 00:29:37;;;;;;;;;;;;;;;-1.40;92.87;91710.16;1066981;55;20589;-86
2021/01/21 00:30:39;;;;;;;;;;;;;;;-1.39;92.70;91714.25;1063295;56;20736;-86
2021/01/21 00:31:39;;;;;;;;;;;;;;;-1.37;92.09;91717.25;1060931;56;20186;-85
2021/01/21 00:32:39;;;;;;;;;;;;;;;-1.34;91.59;91708.66;1063213;56;20181;-85
2021/01/21 00:33:40;;;;;;;;;;;;;;;-1.36;92.30;91703.00;1063162;56;20184;-85
2021/01/21 00:34:42;;;;;;;;;;;;;;;-1.35;92.07;91700.03;1063302;56;20736;-85
2021/01/21 00:35:44;;;;;;;;;;;;;;;-1.34;92.01;91692.91;1060896;56;20186;-85
2021/01/21 00:36:44;;;;;;;;;;;;;;;-1.42;92.08;91702.66;1061011;56;20182;-88
2021/01/21 00:37:44;;;;;;;;;;;;;;;-1.41;92.38;91696.28;1063066;56;20177;-85
2021/01/21 00:38:45;;;;;;;;;;;;;;;-1.34;91.53;91685.06;1060893;56;20182;-86
2021/01/21 00:39:45;;;;;;;;;;;;;;;-1.36;91.72;91703.00;1063093;56;20154;-85
2021/01/21 00:40:46;;;;;;;;;;;;;;;-1.39;92.02;91688.06;1060902;56;20580;-85
2021/01/21 00:41:47;;;;;;;;;;;;;;;-1.43;92.62;91689.94;1063001;56;20189;-84
2021/01/21 00:42:47;;;;;;;;;;;;;;;-1.45;92.46;91685.06;1062853;56;20745;-85
2021/01/21 00:43:48;;;;;;;;;;;;;;;-1.44;92.37;91689.19;1063149;56;20642;-85
2021/01/21 00:44:48;;;;;;;;;;;;;;;-1.47;92.79;91681.31;1063292;56;20158;-85
2021/01/21 00:45:51;;;;;;;;;;;;;;;-1.48;92.39;91691.06;1063198;56;20247;-85
2021/01/21 00:46:51;;;;;;;;;;;;;;;-1.49;92.81;91686.19;1063308;56;20176;-85
2021/01/21 00:47:52;;;;;;;;;;;;;;;-1.49;92.84;91684.31;1063053;56;20173;-85
2021/01/21 00:48:52;;;;;;;;;;;;;;;-1.42;92.19;91668.59;1063122;56;20154;-85
2021/01/21 00:49:53;;;;;;;;;;;;;;;-1.46;92.46;91688.06;1065328;55;20146;-84
2021/01/21 00:50:53;;;;;;;;;;;;;;;-1.47;92.71;91673.47;1061035;56;20178;-86
2021/01/21 00:51:54;;;;;;;;;;;;;;;-1.43;92.37;91682.81;1063138;56;20177;-86
2021/01/21 00:52:54;;;;;;;;;;;;;;;-1.42;91.92;91679.06;1063019;56;20667;-84
2021/01/21 00:53:55;;;;;;;;;;;;;;;-1.50;92.35;91676.81;1061069;56;20163;-85
2021/01/21 00:54:56;;;;;;;;;;;;;;;-1.49;93.03;91684.31;1063090;56;20154;-85
2021/01/21 00:55:56;;;;;;;;;;;;;;;-1.52;93.43;91675.34;1065266;55;20188;-86
2021/01/21 00:56:56;;;;;;;;;;;;;;;-1.49;93.28;91673.06;1065002;55;20220;-87
2021/01/21 00:57:57;;;;;;;;;;;;;;;-1.48;93.32;91672.72;1062995;56;20370;-85
2021/01/21 00:58:57;;;;;;;;;;;;;;;-1.48;93.46;91675.34;1063101;56;20249;-86
2021/01/21 00:59:58;;;;;;;;;;;;;;;-1.43;93.03;91679.44;1063102;56;20205;-86
2021/01/21 01:00:58;;;;;;;;;;;;;;;-1.43;92.93;91685.44;1063052;56;20564;-86
2021/01/21 01:01:59;;;;;;;;;;;;;;;-1.42;93.18;91684.31;1060978;56;20159;-86
2021/01/21 01:03:00;;;;;;;;;;;;;;;-1.37;92.99;91677.94;1063050;56;20185;-86
2021/01/21 01:04:00;;;;;;;;;;;;;;;-1.39;92.95;91665.22;1065211;55;20165;-87
2021/01/21 01:05:01;;;;;;;;;;;;;;;-1.36;92.91;91680.19;1063051;56;20676;-86
2021/01/21 01:06:05;;;;;;;;;;;;;;;-1.38;92.73;91690.28;1061115;56;20173;-86
2021/01/21 01:07:05;;;;;;;;;;;;;;;-1.34;93.23;91677.94;1063061;56;20150;-85
2021/01/21 01:08:06;;;;;;;;;;;;;;;-1.31;93.26;91681.69;1063194;56;20194;-84
2021/01/21 01:09:06;;;;;;;;;;;;;;;-1.32;93.03;91685.41;1063067;56;20154;-85
2021/01/21 01:10:07;;;;;;;;;;;;;;;-1.35;93.11;91679.06;1060842;56;20202;-84
2021/01/21 01:11:08;;;;;;;;;;;;;;;-1.32;93.21;91678.31;1060987;56;20202;-85
2021/01/21 01:12:09;;;;;;;;;;;;;;;-1.33;93.29;91676.06;1063008;56;20268;-85
2021/01/21 01:13:09;;;;;;;;;;;;;;;-1.29;93.34;91685.41;1061122;56;20178;-85
2021/01/21 01:14:10;;;;;;;;;;;;;;;-1.24;93.21;91691.41;1063041;56;20162;-85
2021/01/21 01:15:10;;;;;;;;;;;;;;;-1.21;92.94;91695.91;1063051;56;20169;-85
2021/01/21 01:16:11;;;;;;;;;;;;;;;-1.19;92.98;91709.37;1062871;56;21037;-85
2021/01/21 01:17:12;;;;;;;;;;;;;;;-1.20;92.45;91707.87;1064944;55;20181;-85
2021/01/21 01:18:12;;;;;;;;;;;;;;;-1.28;93.31;91702.63;1060826;56;20185;-86
2021/01/21 01:19:12;;;;;;;;;;;;;;;-1.30;93.27;91697.03;1060641;56;20157;-85
2021/01/21 01:20:13;;;;;;;;;;;;;;;-1.20;93.08;91694.78;1060785;56;20151;-85
2021/01/21 01:21:13;;;;;;;;;;;;;;;-1.23;93.29;91688.41;1062916;56;20185;-85
2021/01/21 01:22:15;;;;;;;;;;;;;;;-1.16;92.89;91706.00;1065430;55;20255;-85
2021/01/21 01:23:15;;;;;;;;;;;;;;;-1.22;92.75;91697.78;1062381;56;20251;-86
2021/01/21 01:24:16;;;;;;;;;;;;;;;-1.27;92.86;91696.28;1062949;56;20182;-86
2021/01/21 01:25:17;;;;;;;;;;;;;;;-1.22;92.98;91691.78;1062999;56;20559;-88
2021/01/21 01:26:20;;;;;;;;;;;;;;;-1.12;92.72;91701.50;1063037;56;20255;-86
2021/01/21 01:27:21;;;;;;;;;;;;;;;-1.09;92.54;91701.50;1061011;56;20614;-86
2021/01/21 01:28:22;;;;;;;;;;;;;;;-0.97;92.71;91695.09;1063145;56;20146;-86
2021/01/21 01:29:23;;;;;;;;;;;;;;;-0.94;92.85;91706.72;1063064;56;20186;-84
2021/01/21 01:30:23;;;;;;;;;;;;;;;-0.74;91.38;91702.56;1060827;56;20249;-86
2021/01/21 01:31:26;;;;;;;;;;;;;;;-0.64;91.04;91695.78;1062888;56;20170;-86
2021/01/21 01:32:26;;;;;;;;;;;;;;;-0.45;90.05;91689.34;1063122;56;20166;-86
2021/01/21 01:33:27;;;;;;;;;;;;;;;-0.22;89.41;91688.84;1060882;56;20253;-85
2021/01/21 01:34:27;;;;;;;;;;;;;;;-0.10;88.46;91676.03;1061031;56;20260;-86
2021/01/21 01:35:27;;;;;;;;;;;;;;;0.04;87.10;91677.81;1063182;56;20185;-86
2021/01/21 01:36:28;;;;;;;;;;;;;;;0.14;86.99;91669.16;1061105;56;20194;-86
2021/01/21 01:37:28;;;;;;;;;;;;;;;0.19;85.56;91663.47;1061125;56;20162;-85
2021/01/21 01:38:29;;;;;;;;;;;;;;;0.35;85.20;91667.50;1063067;56;20157;-86
2021/01/21 01:39:29;;;;;;;;;;;;;;;0.40;85.90;91657.34;1065386;55;20243;-86
2021/01/21 01:40:30;;;;;;;;;;;;;;;0.57;84.39;91670.72;1061191;56;20624;-85
2021/01/21 01:41:30;;;;;;;;;;;;;;;0.56;85.20;91671.84;1061083;56;20166;-84
2021/01/21 01:42:30;;;;;;;;;;;;;;;0.59;84.14;91669.19;1063156;56;20146;-85
2021/01/21 01:43:31;;;;;;;;;;;;;;;0.69;83.63;91678.87;1065130;55;20692;-85
2021/01/21 01:44:31;;;;;;;;;;;;;;;0.75;83.06;91676.59;1058619;56;20155;-87
2021/01/21 01:45:32;;;;;;;;;;;;;;;0.81;83.29;91682.91;1062924;56;20189;-86
2021/01/21 01:46:32;;;;;;;;;;;;;;;0.89;81.76;91689.59;1064823;55;20176;-86
2021/01/21 01:47:33;;;;;;;;;;;;;;;0.90;82.08;91687.72;1060862;56;20186;-86
2021/01/21 01:48:33;;;;;;;;;;;;;;;0.79;84.07;91682.56;1060724;56;20159;-85
2021/01/21 01:49:35;;;;;;;;;;;;;;;0.71;84.38;91679.25;1062924;56;20185;-86
2021/01/21 01:50:36;;;;;;;;;;;;;;;0.78;83.58;91686.31;1061025;56;20153;-85
2021/01/21 01:51:38;;;;;;;;;;;;;;;0.85;81.70;91696.03;1062916;56;21224;-86
2021/01/21 01:52:42;;;;;;;;;;;;;;;0.84;82.18;91695.28;1063010;56;20200;-85
2021/01/21 01:53:42;;;;;;;;;;;;;;;0.83;82.43;91683.25;1063151;56;20174;-86
2021/01/21 01:54:42;;;;;;;;;;;;;;;0.85;82.27;91683.63;1062894;56;20697;-88
2021/01/21 01:55:43;;;;;;;;;;;;;;;0.79;84.28;91682.56;1060890;56;20173;-87
2021/01/21 01:56:43;;;;;;;;;;;;;;;0.72;84.94;91680.00;1060841;56;20155;-86
2021/01/21 01:57:49;;;;;;;;;;;;;;;0.64;84.94;91663.50;1061182;56;20165;-84
2021/01/21 01:58:50;;;;;;;;;;;;;;;0.57;84.55;91639.16;1061070;56;20252;-85
2021/01/21 01:59:54;;;;;;;;;;;;;;;0.54;85.45;91642.59;1061105;56;20672;-85
2021/01/21 02:00:56;;;;;;;;;;;;;;;0.62;84.85;91660.53;1061198;56;20159;-84
2021/01/21 02:01:56;;;;;;;;;;;;;;;0.56;84.87;91651.56;1061000;56;20182;-84
2021/01/21 02:02:57;;;;;;;;;;;;;;;0.49;85.00;91654.25;1060832;56;20155;-86
2021/01/21 02:03:57;;;;;;;;;;;;;;;0.55;83.73;91650.06;1062751;56;20186;-85
2021/01/21 02:04:59;;;;;;;;;;;;;;;0.45;84.71;91641.16;1065004;55;20197;-86
2021/01/21 02:06:00;;;;;;;;;;;;;;;0.61;84.06;91650.41;1065059;55;20258;-85
2021/01/21 02:07:00;;;;;;;;;;;;;;;0.63;83.98;91640.25;1064939;55;20259;-85
2021/01/21 02:08:01;;;;;;;;;;;;;;;0.62;83.08;91659.81;1060741;56;20162;-86
2021/01/21 02:09:02;;;;;;;;;;;;;;;0.82;81.14;91663.34;1062724;56;20177;-89
2021/01/21 02:10:03;;;;;;;;;;;;;;;0.93;82.09;91669.28;1062757;56;20178;-86
2021/01/21 02:11:07;;;;;;;;;;;;;;;0.88;82.08;91671.56;1060649;56;20174;-89
2021/01/21 02:12:17;;;;;;;;;;;;;;;0.91;83.00;91682.06;1063056;56;20162;-85
2021/01/21 02:13:32;;;;;;;;;;;;;;;0.90;81.55;91685.84;1060876;56;20643;-86
2021/01/21 02:14:58;;;;;;;;;;;;;;;0.98;81.18;91687.28;1061156;56;20181;-84
2021/01/21 02:16:17;;;;;;;;;;;;;;;0.92;82.02;91680.16;1061640;56;20186;-85
2021/01/21 02:17:37;;;;;;;;;;;;;;;0.81;83.54;91682.91;1061207;56;20197;-84
2021/01/21 02:19:01;;;;;;;;;;;;;;;0.62;86.28;91684.19;1061798;56;20166;-86
2021/01/21 02:20:19;;;;;;;;;;;;;;;0.52;85.59;91685.00;1061206;56;20186;-85
2021/01/21 02:21:29;;;;;;;;;;;;;;;0.41;86.97;91687.72;1059806;56;20722;-85
2021/01/21 02:22:48;;;;;;;;;;;;;;;0.45;87.26;91688.47;1063139;55;20159;-85
2021/01/21 02:23:55;;;;;;;;;;;;;;;0.53;85.05;91673.38;1062820;56;20615;-87
2021/01/21 02:25:15;;;;;;;;;;;;;;;0.50;85.34;91682.78;1063364;55;21140;-86
2021/01/21 02:26:18;;;;;;;;;;;;;;;0.41;86.28;91679.09;1062666;56;20248;-85
2021/01/21 02:27:19;;;;;;;;;;;;;;;0.40;87.31;91682.88;1063032;55;20771;-85
2021/01/21 02:28:31;;;;;;;;;;;;;;;0.48;85.63;91692.94;1067068;55;20180;-85
2021/01/21 02:29:36;;;;;;;;;;;;;;;0.36;86.64;91690.78;1067160;55;20242;-85
2021/01/21 02:30:42;;;;;;;;;;;;;;;0.32;86.93;91679.53;1062772;56;20177;-86
2021/01/21 02:32:01;;;;;;;;;;;;;;;0.25;88.93;91682.94;1063500;55;20619;-84
2021/01/21 02:33:17;;;;;;;;;;;;;;;0.18;89.53;91677.75;1067118;55;20270;-86
2021/01/21 02:34:30;;;;;;;;;;;;;;;0.15;90.07;91675.91;1066932;55;20221;-85
2021/01/21 02:35:31;;;;;;;;;;;;;;;0.10;90.57;91657.91;1064605;55;20165;-86
2021/01/21 02:36:43;;;;;;;;;;;;;;;0.11;89.92;91666.53;1064378;55;20173;-85
2021/01/21 02:37:48;;;;;;;;;;;;;;;0.05;90.37;91670.72;1060691;56;20162;-84
2021/01/21 02:38:49;;;;;;;;;;;;;;;0.06;90.18;91664.34;1060328;56;20587;-88
2021/01/21 02:39:52;;;;;;;;;;;;;;;0.09;90.32;91664.31;1062956;56;20158;-84
2021/01/21 02:40:53;;;;;;;;;;;;;;;0.08;90.29;91669.94;1060689;56;20189;-85
2021/01/21 02:41:55;;;;;;;;;;;;;;;0.10;90.53;91665.06;1062932;55;20182;-84
2021/01/21 02:42:56;;;;;;;;;;;;;;;0.14;89.97;91658.66;1063041;56;20769;-85
2021/01/21 02:43:56;;;;;;;;;;;;;;;0.15;90.21;91662.75;1060742;56;20280;-85
2021/01/21 02:44:58;;;;;;;;;;;;;;;0.19;90.11;91658.22;1062970;55;20236;-86
2021/01/21 02:45:58;;;;;;;;;;;;;;;0.10;90.52;91647.41;1062925;56;20181;-85
2021/01/21 02:46:59;;;;;;;;;;;;;;;0.08;91.19;91654.91;1062800;56;20247;-84
2021/01/21 02:48:00;;;;;;;;;;;;;;;0.07;91.44;91660.56;1058571;56;20763;-86
2021/01/21 02:49:01;;;;;;;;;;;;;;;0.04;91.48;91651.56;1060646;56;20194;-85
2021/01/21 02:50:01;;;;;;;;;;;;;;;-0.02;91.64;91658.38;1060525;56;20155;-85
2021/01/21 02:51:22;;;;;;;;;;;;;;;-0.02;92.59;91666.25;1062653;56;20260;-85
2021/01/21 02:52:34;;;;;;;;;;;;;;;-0.02;92.62;91655.75;1061916;56;20149;-87
2021/01/21 02:53:37;;;;;;;;;;;;;;;-0.08;91.57;91646.78;1065261;55;20272;-86
2021/01/21 02:54:38;;;;;;;;;;;;;;;-0.03;93.22;91656.88;1064811;55;20189;-86
2021/01/21 02:55:51;;;;;;;;;;;;;;;-0.16;93.72;91653.94;1062756;56;20244;-86
2021/01/21 02:57:04;;;;;;;;;;;;;;;-0.09;94.41;91650.53;1063046;56;20189;-86
2021/01/21 02:58:12;;;;;;;;;;;;;;;-0.08;93.48;91652.78;1063090;56;20185;-86
2021/01/21 02:59:14;;;;;;;;;;;;;;;-0.07;93.65;91646.38;1058969;56;20163;-86
2021/01/21 03:00:16;;;;;;;;;;;;;;;-0.15;94.53;91636.31;1060815;56;20214;-85
2021/01/21 03:01:17;;;;;;;;;;;;;;;-0.07;93.79;91640.41;1060443;56;20694;-86
2021/01/21 03:02:19;;;;;;;;;;;;;;;-0.11;93.57;91645.66;1062617;56;20346;-86
2021/01/21 03:03:23;;;;;;;;;;;;;;;-0.15;94.71;91647.56;1064683;55;20263;-85
2021/01/21 03:04:24;;;;;;;;;;;;;;;-0.14;94.94;91632.53;1062752;56;20266;-86
2021/01/21 03:05:27;;;;;;;;;;;;;;;-0.13;94.19;91636.66;1060515;56;20217;-85
2021/01/21 03:06:28;;;;;;;;;;;;;;;-0.16;95.16;91629.56;1060586;56;20166;-86
2021/01/21 03:07:30;;;;;;;;;;;;;;;-0.16;95.40;91630.31;1060511;56;20627;-86
2021/01/21 03:08:31;;;;;;;;;;;;;;;-0.15;94.94;91629.19;1062945;55;20180;-87
2021/01/21 03:09:32;;;;;;;;;;;;;;;-0.18;94.38;91629.19;1062693;56;20193;-86
2021/01/21 03:10:32;;;;;;;;;;;;;;;-0.18;95.36;91632.56;1060547;56;20265;-85
2021/01/21 03:11:33;;;;;;;;;;;;;;;-0.16;94.89;91634.81;1062507;56;20166;-85
2021/01/21 03:12:33;;;;;;;;;;;;;;;-0.13;93.93;91641.91;1060333;56;20170;-84
2021/01/21 03:13:34;;;;;;;;;;;;;;;-0.16;94.19;91640.81;1060463;56;20248;-85
2021/01/21 03:14:34;;;;;;;;;;;;;;;-0.06;92.84;91629.50;1064860;55;20746;-85
2021/01/21 03:15:35;;;;;;;;;;;;;;;0.10;90.97;91636.16;1062819;56;20708;-86
2021/01/21 03:16:35;;;;;;;;;;;;;;;0.09;91.79;91632.78;1062697;56;20677;-86
2021/01/21 03:17:36;;;;;;;;;;;;;;;0.09;91.24;91648.56;1064713;55;21004;-86
2021/01/21 03:18:36;;;;;;;;;;;;;;;0.15;92.11;91638.38;1062574;56;20190;-85
2021/01/21 03:19:37;;;;;;;;;;;;;;;0.11;92.75;91648.16;1062629;56;20158;-85
2021/01/21 03:20:37;;;;;;;;;;;;;;;0.10;93.38;91646.66;1064690;55;20256;-87
2021/01/21 03:21:37;;;;;;;;;;;;;;;0.09;92.50;91645.94;1064617;55;20158;-86
2021/01/21 03:22:38;;;;;;;;;;;;;;;0.05;92.45;91639.19;1064978;55;20193;-85
2021/01/21 03:23:44;;;;;;;;;;;;;;;-0.02;93.17;91645.97;1066891;55;20613;-86
2021/01/21 03:24:45;;;;;;;;;;;;;;;-0.08;93.22;91641.53;1062719;56;20232;-85
2021/01/21 03:25:45;;;;;;;;;;;;;;;-0.14;93.21;91637.78;1062593;56;20173;-86
2021/01/21 03:26:46;;;;;;;;;;;;;;;-0.23;93.33;91646.09;1062538;56;20193;-84
2021/01/21 03:27:46;;;;;;;;;;;;;;;-0.21;94.88;91638.59;1062280;56;20631;-87
2021/01/21 03:28:47;;;;;;;;;;;;;;;-0.25;94.75;91637.88;1062551;56;20159;-85
2021/01/21 03:29:48;;;;;;;;;;;;;;;-0.19;95.15;91638.94;1064780;55;20193;-86
2021/01/21 03:30:48;;;;;;;;;;;;;;;-0.22;95.19;91631.87;1064975;55;20150;-85
2021/01/21 03:31:49;;;;;;;;;;;;;;;-0.23;94.50;91638.22;1064842;55;20270;-85
2021/01/21 03:32:49;;;;;;;;;;;;;;;-0.23;93.80;91630.34;1067105;55;20154;-86
2021/01/21 03:33:50;;;;;;;;;;;;;;;-0.18;94.12;91631.81;1064853;55;20150;-85
2021/01/21 03:34:50;;;;;;;;;;;;;;;-0.18;94.14;91622.06;1060637;56;20229;-85
2021/01/21 03:35:51;;;;;;;;;;;;;;;-0.11;95.25;91614.16;1062755;56;20720;-85
2021/01/21 03:36:51;;;;;;;;;;;;;;;-0.14;95.10;91620.16;1065114;56;20162;-85
2021/01/21 03:37:52;;;;;;;;;;;;;;;-0.26;96.10;91616.13;1064983;56;20173;-86
2021/01/21 03:38:53;;;;;;;;;;;;;;;-0.25;95.26;91616.87;1063179;55;20240;-87
2021/01/21 03:39:53;;;;;;;;;;;;;;;-0.20;94.36;91613.84;1064987;56;20178;-86
2021/01/21 03:40:54;;;;;;;;;;;;;;;-0.12;93.02;91617.91;1062865;56;20666;-86
2021/01/21 03:41:54;;;;;;;;;;;;;;;-0.07;92.27;91622.75;1062806;56;20245;-85
2021/01/21 03:42:55;;;;;;;;;;;;;;;-0.04;92.23;91629.12;1067150;55;20161;-86
2021/01/21 03:43:55;;;;;;;;;;;;;;;-0.09;92.93;91625.03;1067099;55;20154;-85
2021/01/21 03:44:56;;;;;;;;;;;;;;;-0.08;92.49;91631.03;1067152;55;20181;-87
2021/01/21 03:45:57;;;;;;;;;;;;;;;-0.11;93.87;91624.66;1064833;56;20161;-85
2021/01/21 03:46:57;;;;;;;;;;;;;;;-0.06;93.53;91629.50;1064947;56;20154;-86
2021/01/21 03:47:57;;;;;;;;;;;;;;;-0.07;92.85;91632.50;1064884;56;20181;-85
2021/01/21 03:48:58;;;;;;;;;;;;;;;-0.15;93.69;91623.19;1062793;56;20643;-86
2021/01/21 03:49:59;;;;;;;;;;;;;;;-0.09;93.87;91625.03;1062785;55;20170;-86
2021/01/21 03:51:00;;;;;;;;;;;;;;;-0.02;92.16;91618.97;1067274;55;20184;-86
2021/01/21 03:52:01;;;;;;;;;;;;;;;-0.01;91.74;91625.72;1064646;56;20161;-84
2021/01/21 03:53:01;;;;;;;;;;;;;;;-0.02;91.82;91629.47;1062662;56;20624;-85
2021/01/21 03:54:02;;;;;;;;;;;;;;;-0.04;91.95;91627.25;1062425;56;20166;-86
2021/01/21 03:55:02;;;;;;;;;;;;;;;-0.02;91.59;91626.84;1062554;56;21037;-85
2021/01/21 03:56:03;;;;;;;;;;;;;;;0.01;91.61;91612.22;1064743;56;20165;-86
2021/01/21 03:57:03;;;;;;;;;;;;;;;0.10;89.84;91615.88;1066877;55;20161;-85
2021/01/21 03:58:04;;;;;;;;;;;;;;;0.27;88.19;91605.62;1069053;55;20181;-86
2021/01/21 03:59:04;;;;;;;;;;;;;;;0.38;87.00;91609.66;1064749;56;20154;-85
2021/01/21 04:00:05;;;;;;;;;;;;;;;0.46;86.82;91623.50;1062616;56;20259;-86
2021/01/21 04:01:05;;;;;;;;;;;;;;;0.44;86.77;91617.84;1064712;56;20252;-88
2021/01/21 04:02:06;;;;;;;;;;;;;;;0.49;87.85;91620.09;1065203;56;20158;-86
2021/01/21 04:03:06;;;;;;;;;;;;;;;0.56;86.47;91624.53;1065300;56;20692;-86
2021/01/21 04:04:06;;;;;;;;;;;;;;;0.50;86.78;91622.31;1065199;56;20134;-86
2021/01/21 04:05:07;;;;;;;;;;;;;;;0.53;85.69;91630.56;1067562;55;20161;-85
2021/01/21 04:06:08;;;;;;;;;;;;;;;0.46;86.89;91634.75;1067742;55;20269;-84
2021/01/21 04:07:08;;;;;;;;;;;;;;;0.42;88.35;91635.91;1065460;55;20306;-85
2021/01/21 04:08:09;;;;;;;;;;;;;;;0.36;88.74;91638.22;1063521;56;20158;-87
2021/01/21 04:09:09;;;;;;;;;;;;;;;0.38;87.24;91632.56;1061354;56;20154;-87
2021/01/21 04:10:11;;;;;;;;;;;;;;;0.36;88.16;91646.09;1061395;56;20162;-86
2021/01/21 04:11:11;;;;;;;;;;;;;;;0.39;87.13;91647.94;1063372;55;20725;-86
2021/01/21 04:12:12;;;;;;;;;;;;;;;0.42;87.73;91641.91;1065741;55;20150;-86
2021/01/21 04:13:12;;;;;;;;;;;;;;;0.37;87.66;91641.59;1065376;55;20153;-86
2021/01/21 04:14:13;;;;;;;;;;;;;;;0.37;88.00;91639.69;1065737;55;20716;-86
2021/01/21 04:15:13;;;;;;;;;;;;;;;0.34;88.14;91642.34;1065611;55;20196;-84
2021/01/21 04:16:14;;;;;;;;;;;;;;;0.33;88.32;91640.88;1065680;55;20595;-86
2021/01/21 04:17:14;;;;;;;;;;;;;;;0.23;89.85;91645.81;1067839;55;20653;-87
2021/01/21 04:18:15;;;;;;;;;;;;;;;0.17;89.90;91642.09;1065496;55;20659;-86
2021/01/21 04:19:15;;;;;;;;;;;;;;;0.15;89.74;91639.13;1065450;55;20658;-86
2021/01/21 04:20:16;;;;;;;;;;;;;;;0.16;89.42;91637.22;1063409;56;20162;-85
2021/01/21 04:21:16;;;;;;;;;;;;;;;0.16;89.53;91639.87;1061241;56;20765;-86
2021/01/21 04:22:17;;;;;;;;;;;;;;;0.13;89.68;91638.78;1065495;55;20169;-86
2021/01/21 04:23:17;;;;;;;;;;;;;;;0.15;90.10;91639.13;1067665;55;20688;-88
2021/01/21 04:24:18;;;;;;;;;;;;;;;0.19;90.50;91650.34;1063456;56;20192;-86
2021/01/21 04:25:18;;;;;;;;;;;;;;;0.20;89.81;91643.94;1063498;56;20568;-86
2021/01/21 04:26:19;;;;;;;;;;;;;;;0.32;88.19;91647.25;1065781;55;20158;-86
2021/01/21 04:27:19;;;;;;;;;;;;;;;0.31;88.06;91640.50;1061395;56;20289;-87
2021/01/21 04:28:20;;;;;;;;;;;;;;;0.35;88.51;91642.00;1061269;56;20169;-86
2021/01/21 04:29:20;;;;;;;;;;;;;;;0.42;87.85;91639.28;1063256;56;20166;-84
2021/01/21 04:30:21;;;;;;;;;;;;;;;0.39;88.53;91647.94;1063381;56;20170;-84
2021/01/21 04:31:21;;;;;;;;;;;;;;;0.39;87.24;91636.69;1063383;56;20158;-85
2021/01/21 04:32:21;;;;;;;;;;;;;;;0.66;85.19;91636.81;1063536;56;20229;-86
2021/01/21 04:33:22;;;;;;;;;;;;;;;0.79;83.80;91634.47;1061477;56;20163;-87
2021/01/21 04:34:22;;;;;;;;;;;;;;;0.81;84.80;91640.84;1061553;56;20258;-87
2021/01/21 04:35:23;;;;;;;;;;;;;;;0.81;84.54;91632.94;1059366;56;20185;-86
2021/01/21 04:36:23;;;;;;;;;;;;;;;0.91;83.13;91629.44;1059173;56;20170;-85
2021/01/21 04:37:24;;;;;;;;;;;;;;;1.00;82.69;91632.37;1061396;56;20158;-86
2021/01/21 04:38:24;;;;;;;;;;;;;;;0.91;83.92;91629.44;1061334;56;20151;-87
2021/01/21 04:39:25;;;;;;;;;;;;;;;0.81;84.32;91632.94;1063588;56;20623;-87
2021/01/21 04:40:29;;;;;;;;;;;;;;;0.84;83.71;91626.91;1063635;56;20260;-86
2021/01/21 04:41:29;;;;;;;;;;;;;;;0.83;84.84;91622.75;1061577;56;20193;-87
2021/01/21 04:42:31;;;;;;;;;;;;;;;0.92;83.37;91624.94;1061582;56;20187;-85
2021/01/21 04:43:32;;;;;;;;;;;;;;;0.86;84.06;91637.03;1059318;56;20158;-86
2021/01/21 04:44:32;;;;;;;;;;;;;;;0.93;82.55;91635.09;1063486;56;20193;-86
2021/01/21 04:45:33;;;;;;;;;;;;;;;0.88;83.64;91632.87;1063297;56;20228;-87
2021/01/21 04:46:34;;;;;;;;;;;;;;;0.81;83.66;91626.94;1060975;56;20249;-85
2021/01/21 04:47:35;;;;;;;;;;;;;;;0.71;85.06;91624.03;1060732;56;20713;-86
2021/01/21 04:48:35;;;;;;;;;;;;;;;0.79;84.41;91623.94;1058870;56;20163;-86
2021/01/21 04:49:39;;;;;;;;;;;;;;;0.67;84.70;91627.81;1060885;56;20697;-85
2021/01/21 04:50:40;;;;;;;;;;;;;;;0.79;83.42;91626.56;1065227;55;20164;-85
2021/01/21 04:51:42;;;;;;;;;;;;;;;0.89;82.63;91628.38;1061246;56;20158;-86
2021/01/21 04:52:45;;;;;;;;;;;;;;;0.84;84.27;91620.91;1063098;55;20193;-86
2021/01/21 04:53:56;;;;;;;;;;;;;;;0.88;84.12;91619.72;1065216;55;20244;-86
2021/01/21 04:55:06;;;;;;;;;;;;;;;0.85;83.66;91623.13;1063022;56;20154;-84
2021/01/21 04:56:08;;;;;;;;;;;;;;;0.79;85.43;91629.19;1059194;56;20162;-85
2021/01/21 04:57:11;;;;;;;;;;;;;;;0.76;85.28;91620.22;1058773;56;20260;-86
2021/01/21 04:58:21;;;;;;;;;;;;;;;0.77;83.72;91626.22;1061090;56;20185;-87
2021/01/21 04:59:22;;;;;;;;;;;;;;;0.85;83.39;91623.13;1061490;56;20650;-86
2021/01/21 05:00:24;;;;;;;;;;;;;;;0.92;83.57;91625.72;1061105;56;20217;-85
2021/01/21 05:01:24;;;;;;;;;;;;;;;0.89;83.96;91625.75;1058939;56;20588;-87
2021/01/21 05:02:26;;;;;;;;;;;;;;;0.86;83.89;91632.50;1058821;56;20238;-87
2021/01/21 05:03:27;;;;;;;;;;;;;;;0.91;84.23;91634.72;1061059;56;20173;-86
2021/01/21 05:04:28;;;;;;;;;;;;;;;0.99;83.03;91636.12;1065401;55;20984;-86
2021/01/21 05:05:28;;;;;;;;;;;;;;;0.98;82.61;91637.28;1067669;55;20200;-87
2021/01/21 05:06:29;;;;;;;;;;;;;;;1.04;81.99;91642.13;1063361;56;20240;-86
2021/01/21 05:07:30;;;;;;;;;;;;;;;1.09;81.77;91641.69;1063404;56;20189;-87
2021/01/21 05:08:31;;;;;;;;;;;;;;;1.15;80.41;91635.62;1063568;56;20173;-86
2021/01/21 05:09:31;;;;;;;;;;;;;;;1.16;80.87;91644.25;1059022;56;20189;-87
2021/01/21 05:10:33;;;;;;;;;;;;;;;1.11;83.38;91642.06;1059073;56;20155;-86
2021/01/21 05:11:33;;;;;;;;;;;;;;;1.17;81.02;91637.84;1061501;56;20155;-87
2021/01/21 05:12:36;;;;;;;;;;;;;;;1.15;81.63;91635.62;1063168;56;20237;-85
2021/01/21 05:13:37;;;;;;;;;;;;;;;1.16;81.71;91633.72;1061338;56;20267;-86
2021/01/21 05:14:37;;;;;;;;;;;;;;;1.13;83.16;91639.75;1061043;56;20166;-87
2021/01/21 05:15:38;;;;;;;;;;;;;;;1.16;81.37;91639.00;1060954;56;20197;-85
2021/01/21 05:16:39;;;;;;;;;;;;;;;1.13;82.86;91645.03;1063277;56;20638;-88
2021/01/21 05:17:39;;;;;;;;;;;;;;;1.11;81.47;91642.06;1063281;56;20638;-88
2021/01/21 05:18:40;;;;;;;;;;;;;;;1.07;82.48;91638.72;1061328;56;20159;-86
2021/01/21 05:19:44;;;;;;;;;;;;;;;0.98;83.11;91641.81;1060862;56;20171;-86
2021/01/21 05:20:45;;;;;;;;;;;;;;;0.98;84.11;91633.91;1060862;56;20186;-87
2021/01/21 05:21:46;;;;;;;;;;;;;;;0.94;84.16;91641.09;1060816;56;20194;-86
2021/01/21 05:22:46;;;;;;;;;;;;;;;0.96;83.44;91649.31;1062768;56;20268;-87
2021/01/21 05:23:47;;;;;;;;;;;;;;;0.95;83.27;91639.94;1065160;55;20181;-87
2021/01/21 05:24:48;;;;;;;;;;;;;;;0.95;82.70;91645.94;1061038;56;20170;-86